PWSweather.com
Personal Weather Stations
Station Observations
KOHCLEVE171
Cleveland, OH

Cleveland, OH

Lat: 41.48646164, Lon: -81.46408081

Elevation: 1059

Station Type:

High Low Average
Temperature 33.4°F0.8°C 29.7°F-1.3°C 31.7°F-0.2°C
Dew Point 32.0°F0.0°C 25.0°F-3.9°C 28.8°F-1.8°C
Winds 4.7 mph 7.6 kmh Calm Calm 1.0 mph S1.6 kmh S
Wind Gusts 9.2 mph14.8 kmh -- 3.0 mph4.8 kmh
Humidity 95% 80% 89%
Pressure 30.27 in1025.1 mb 29.98 in1015.2 mb -
Precipitation 0.00 in0.0 mm - -
Hour Temp Dew Point Humidity Winds Wind Gusts Pressure Precip Precip Rate Daily Precip Total
12:04 AM 31.6°F-0.2°C 29.8°F-1.2°C 93% 1.6 mph SE2.6 kmh SE 2.0 mph3.2 kmh 30.02 in1016.6 mb 0.00 in0.0 mm 0.00 in0.0 mm 0.00 in0.0 mm
12:09 AM 31.6°F-0.2°C 30.2°F-1.0°C 94% 1.8 mph ESE2.9 kmh ESE 2.2 mph3.5 kmh 30.02 in1016.6 mb 0.00 in0.0 mm 0.00 in0.0 mm 0.00 in0.0 mm
12:14 AM 31.6°F-0.2°C 29.8°F-1.2°C 93% 1.8 mph SE2.9 kmh SE 2.0 mph3.2 kmh 30.02 in1016.6 mb 0.00 in0.0 mm 0.00 in0.0 mm 0.00 in0.0 mm
12:19 AM 31.8°F-0.1°C 30.0°F-1.1°C 93% 1.3 mph SE2.1 kmh SE 1.8 mph2.9 kmh 30.03 in1016.9 mb 0.00 in0.0 mm 0.00 in0.0 mm 0.00 in0.0 mm
12:24 AM 31.8°F-0.1°C 30.0°F-1.1°C 93% 1.1 mph SE1.8 kmh SE 1.8 mph2.9 kmh 30.03 in1016.9 mb 0.00 in0.0 mm 0.00 in0.0 mm 0.00 in0.0 mm
12:29 AM 31.8°F-0.1°C 30.0°F-1.1°C 93% 1.6 mph SE2.6 kmh SE 1.8 mph2.9 kmh 30.03 in1016.9 mb 0.00 in0.0 mm 0.00 in0.0 mm 0.00 in0.0 mm
12:34 AM 31.8°F-0.1°C 30.4°F-0.9°C 94% 1.1 mph ESE1.8 kmh ESE 1.3 mph2.1 kmh 30.03 in1016.9 mb 0.00 in0.0 mm 0.00 in0.0 mm 0.00 in0.0 mm
12:39 AM 31.8°F-0.1°C 30.0°F-1.1°C 93% 1.1 mph SE1.8 kmh SE 1.6 mph2.6 kmh 30.02 in1016.6 mb 0.00 in0.0 mm 0.00 in0.0 mm 0.00 in0.0 mm
12:44 AM 31.8°F-0.1°C 30.0°F-1.1°C 93% 1.6 mph SE2.6 kmh SE 1.8 mph2.9 kmh 30.02 in1016.6 mb 0.00 in0.0 mm 0.00 in0.0 mm 0.00 in0.0 mm
12:49 AM 31.8°F-0.1°C 30.4°F-0.9°C 94% 1.8 mph SE2.9 kmh SE 2.2 mph3.5 kmh 30.02 in1016.6 mb 0.00 in0.0 mm 0.00 in0.0 mm 0.00 in0.0 mm
12:54 AM 32.0°F0.0°C 30.4°F-0.9°C 94% 1.8 mph SSW2.9 kmh SSW 4.3 mph6.9 kmh 30.01 in1016.3 mb 0.00 in0.0 mm 0.00 in0.0 mm 0.00 in0.0 mm
01:04 AM 31.8°F-0.1°C 30.4°F-0.9°C 94% 1.8 mph SSE2.9 kmh SSE 2.9 mph4.7 kmh 30.01 in1016.3 mb 0.00 in0.0 mm 0.00 in0.0 mm 0.00 in0.0 mm
01:09 AM 31.8°F-0.1°C 30.4°F-0.9°C 94% 1.6 mph SE2.6 kmh SE 1.8 mph2.9 kmh 30.01 in1016.3 mb 0.00 in0.0 mm 0.00 in0.0 mm 0.00 in0.0 mm
01:14 AM 32.0°F0.0°C 30.4°F-0.9°C 94% 2.0 mph S3.2 kmh S 3.1 mph5.0 kmh 30.01 in1016.3 mb 0.00 in0.0 mm 0.00 in0.0 mm 0.00 in0.0 mm
01:19 AM 32.0°F0.0°C 30.4°F-0.9°C 94% 1.6 mph SE2.6 kmh SE 2.7 mph4.3 kmh 30.01 in1016.3 mb 0.00 in0.0 mm 0.00 in0.0 mm 0.00 in0.0 mm
01:24 AM 32.2°F0.1°C 30.9°F-0.6°C 95% 1.3 mph SSE2.1 kmh SSE 5.4 mph8.7 kmh 30.01 in1016.3 mb 0.00 in0.0 mm 0.00 in0.0 mm 0.00 in0.0 mm
01:29 AM 32.2°F0.1°C 30.9°F-0.6°C 95% 1.8 mph SSE2.9 kmh SSE 2.7 mph4.3 kmh 30.00 in1015.9 mb 0.00 in0.0 mm 0.00 in0.0 mm 0.00 in0.0 mm
01:34 AM 32.2°F0.1°C 30.9°F-0.6°C 95% 1.6 mph SE2.6 kmh SE 5.4 mph8.7 kmh 30.00 in1015.9 mb 0.00 in0.0 mm 0.00 in0.0 mm 0.00 in0.0 mm
01:39 AM 32.4°F0.2°C 30.7°F-0.7°C 94% 1.1 mph SSW1.8 kmh SSW 2.0 mph3.2 kmh 30.00 in1015.9 mb 0.00 in0.0 mm 0.00 in0.0 mm 0.00 in0.0 mm
01:44 AM 32.4°F0.2°C 30.7°F-0.7°C 94% 0.9 mph SSW1.4 kmh SSW 2.0 mph3.2 kmh 29.99 in1015.6 mb 0.00 in0.0 mm 0.00 in0.0 mm 0.00 in0.0 mm
01:49 AM 32.5°F0.3°C 30.9°F-0.6°C 94% 1.1 mph SE1.8 kmh SE 1.8 mph2.9 kmh 29.99 in1015.6 mb 0.00 in0.0 mm 0.00 in0.0 mm 0.00 in0.0 mm
01:54 AM 32.5°F0.3°C 30.9°F-0.6°C 94% 1.3 mph SSE2.1 kmh SSE 2.7 mph4.3 kmh 29.99 in1015.6 mb 0.00 in0.0 mm 0.00 in0.0 mm 0.00 in0.0 mm
01:59 AM 32.5°F0.3°C 30.9°F-0.6°C 94% 2.0 mph SE3.2 kmh SE 2.9 mph4.7 kmh 29.98 in1015.2 mb 0.00 in0.0 mm 0.00 in0.0 mm 0.00 in0.0 mm
02:04 AM 32.7°F0.4°C 31.1°F-0.5°C 94% 2.0 mph SSW3.2 kmh SSW 3.1 mph5.0 kmh 29.99 in1015.6 mb 0.00 in0.0 mm 0.00 in0.0 mm 0.00 in0.0 mm
02:09 AM 32.7°F0.4°C 31.1°F-0.5°C 94% 2.7 mph SSW4.3 kmh SSW 3.6 mph5.8 kmh 29.98 in1015.2 mb 0.00 in0.0 mm 0.00 in0.0 mm 0.00 in0.0 mm
02:14 AM 32.7°F0.4°C 31.1°F-0.5°C 94% 1.6 mph SSE2.6 kmh SSE 2.5 mph4.0 kmh 29.99 in1015.6 mb 0.00 in0.0 mm 0.00 in0.0 mm 0.00 in0.0 mm
02:19 AM 32.7°F0.4°C 31.1°F-0.5°C 94% 1.1 mph SE1.8 kmh SE 1.6 mph2.6 kmh 29.98 in1015.2 mb 0.00 in0.0 mm 0.00 in0.0 mm 0.00 in0.0 mm
02:24 AM 32.7°F0.4°C 31.1°F-0.5°C 94% 0.9 mph SE1.4 kmh SE 4.0 mph6.4 kmh 29.99 in1015.6 mb 0.00 in0.0 mm 0.00 in0.0 mm 0.00 in0.0 mm
02:29 AM 32.7°F0.4°C 31.1°F-0.5°C 94% 2.2 mph S3.5 kmh S 4.7 mph7.6 kmh 29.99 in1015.6 mb 0.00 in0.0 mm 0.00 in0.0 mm 0.00 in0.0 mm
02:34 AM 32.9°F0.5°C 31.3°F-0.4°C 94% 0.7 mph SSE1.1 kmh SSE 2.0 mph3.2 kmh 29.99 in1015.6 mb 0.00 in0.0 mm 0.00 in0.0 mm 0.00 in0.0 mm
02:39 AM 32.9°F0.5°C 31.3°F-0.4°C 94% 0.7 mph SSW1.1 kmh SSW 1.8 mph2.9 kmh 29.99 in1015.6 mb 0.00 in0.0 mm 0.00 in0.0 mm 0.00 in0.0 mm
02:44 AM 32.9°F0.5°C 31.3°F-0.4°C 94% 1.1 mph S1.8 kmh S 2.2 mph3.5 kmh 29.99 in1015.6 mb 0.00 in0.0 mm 0.00 in0.0 mm 0.00 in0.0 mm
02:49 AM 32.9°F0.5°C 31.3°F-0.4°C 94% 1.6 mph SSW2.6 kmh SSW 2.7 mph4.3 kmh 29.99 in1015.6 mb 0.00 in0.0 mm 0.00 in0.0 mm 0.00 in0.0 mm
02:54 AM 32.9°F0.5°C 31.3°F-0.4°C 94% 0.7 mph SW1.1 kmh SW 2.5 mph4.0 kmh 29.99 in1015.6 mb 0.00 in0.0 mm 0.00 in0.0 mm 0.00 in0.0 mm
02:59 AM 33.1°F0.6°C 31.5°F-0.3°C 94% 1.6 mph S2.6 kmh S 2.7 mph4.3 kmh 29.99 in1015.6 mb 0.00 in0.0 mm 0.00 in0.0 mm 0.00 in0.0 mm
03:04 AM 33.1°F0.6°C 31.5°F-0.3°C 94% 1.6 mph SSW2.6 kmh SSW 2.2 mph3.5 kmh 30.00 in1015.9 mb 0.00 in0.0 mm 0.00 in0.0 mm 0.00 in0.0 mm
03:09 AM 33.1°F0.6°C 31.5°F-0.3°C 94% 1.6 mph SSW2.6 kmh SSW 2.7 mph4.3 kmh 30.00 in1015.9 mb 0.00 in0.0 mm 0.00 in0.0 mm 0.00 in0.0 mm
03:14 AM 33.1°F0.6°C 31.8°F-0.1°C 95% 1.1 mph S1.8 kmh S 2.7 mph4.3 kmh 30.00 in1015.9 mb 0.00 in0.0 mm 0.00 in0.0 mm 0.00 in0.0 mm
03:19 AM 33.1°F0.6°C 31.8°F-0.1°C 95% 1.1 mph SE1.8 kmh SE 1.8 mph2.9 kmh 30.00 in1015.9 mb 0.00 in0.0 mm 0.00 in0.0 mm 0.00 in0.0 mm
03:24 AM 33.3°F0.7°C 32.0°F0.0°C 95% 1.3 mph NNE2.1 kmh NNE 2.7 mph4.3 kmh 30.00 in1015.9 mb 0.00 in0.0 mm 0.00 in0.0 mm 0.00 in0.0 mm
03:29 AM 33.3°F0.7°C 31.6°F-0.2°C 94% 0.4 mph SE0.6 kmh SE 1.6 mph2.6 kmh 30.01 in1016.3 mb 0.00 in0.0 mm 0.00 in0.0 mm 0.00 in0.0 mm
03:34 AM 33.3°F0.7°C 32.0°F0.0°C 95% 2.9 mph NW4.7 kmh NW 8.7 mph14.0 kmh 30.01 in1016.3 mb 0.00 in0.0 mm 0.00 in0.0 mm 0.00 in0.0 mm
03:39 AM 33.3°F0.7°C 32.0°F0.0°C 95% 1.1 mph S1.8 kmh S 2.2 mph3.5 kmh 30.01 in1016.3 mb 0.00 in0.0 mm 0.00 in0.0 mm 0.00 in0.0 mm
03:44 AM 33.3°F0.7°C 32.0°F0.0°C 95% 0.9 mph SW1.4 kmh SW 2.2 mph3.5 kmh 30.01 in1016.3 mb 0.00 in0.0 mm 0.00 in0.0 mm 0.00 in0.0 mm
03:49 AM 33.3°F0.7°C 32.0°F0.0°C 95% 0.7 mph N1.1 kmh N 1.8 mph2.9 kmh 30.01 in1016.3 mb 0.00 in0.0 mm 0.00 in0.0 mm 0.00 in0.0 mm
03:54 AM 33.3°F0.7°C 31.6°F-0.2°C 94% 1.1 mph NW1.8 kmh NW 2.2 mph3.5 kmh 30.01 in1016.3 mb 0.00 in0.0 mm 0.00 in0.0 mm 0.00 in0.0 mm
03:59 AM 33.4°F0.8°C 31.8°F-0.1°C 94% 0.9 mph N1.4 kmh N 2.2 mph3.5 kmh 30.01 in1016.3 mb 0.00 in0.0 mm 0.00 in0.0 mm 0.00 in0.0 mm
04:04 AM 33.3°F0.7°C 31.6°F-0.2°C 94% 1.3 mph SSW2.1 kmh SSW 4.7 mph7.6 kmh 30.01 in1016.3 mb 0.00 in0.0 mm 0.00 in0.0 mm 0.00 in0.0 mm
04:09 AM 33.3°F0.7°C 31.6°F-0.2°C 94% 0.4 mph N0.6 kmh N 1.3 mph2.1 kmh 30.01 in1016.3 mb 0.00 in0.0 mm 0.00 in0.0 mm 0.00 in0.0 mm
04:14 AM 33.4°F0.8°C 31.8°F-0.1°C 94% 2.5 mph W4.0 kmh W 4.9 mph7.9 kmh 30.01 in1016.3 mb 0.00 in0.0 mm 0.00 in0.0 mm 0.00 in0.0 mm
04:19 AM 33.4°F0.8°C 31.8°F-0.1°C 94% 1.6 mph NW2.6 kmh NW 2.7 mph4.3 kmh 30.01 in1016.3 mb 0.00 in0.0 mm 0.00 in0.0 mm 0.00 in0.0 mm
04:24 AM 33.4°F0.8°C 31.8°F-0.1°C 94% 1.8 mph WNW2.9 kmh WNW 6.0 mph9.7 kmh 30.02 in1016.6 mb 0.00 in0.0 mm 0.00 in0.0 mm 0.00 in0.0 mm
04:28 AM 33.3°F0.7°C 31.6°F-0.2°C 94% 2.2 mph NW3.5 kmh NW 9.2 mph14.8 kmh 30.02 in1016.6 mb 0.00 in0.0 mm 0.00 in0.0 mm 0.00 in0.0 mm
04:33 AM 33.3°F0.7°C 31.6°F-0.2°C 94% 3.6 mph SW5.8 kmh SW 8.7 mph14.0 kmh 30.01 in1016.3 mb 0.00 in0.0 mm 0.00 in0.0 mm 0.00 in0.0 mm
04:38 AM 33.3°F0.7°C 31.6°F-0.2°C 94% 0.4 mph WNW0.6 kmh WNW 1.3 mph2.1 kmh 30.01 in1016.3 mb 0.00 in0.0 mm 0.00 in0.0 mm 0.00 in0.0 mm
04:43 AM 33.3°F0.7°C 31.6°F-0.2°C 94% 0.9 mph NW1.4 kmh NW 2.5 mph4.0 kmh 30.01 in1016.3 mb 0.00 in0.0 mm 0.00 in0.0 mm 0.00 in0.0 mm
04:48 AM 33.3°F0.7°C 32.0°F0.0°C 95% 0.7 mph NNW1.1 kmh NNW 2.0 mph3.2 kmh 30.01 in1016.3 mb 0.00 in0.0 mm 0.00 in0.0 mm 0.00 in0.0 mm
04:53 AM 33.3°F0.7°C 32.0°F0.0°C 95% 1.3 mph WSW2.1 kmh WSW 3.6 mph5.8 kmh 30.01 in1016.3 mb 0.00 in0.0 mm 0.00 in0.0 mm 0.00 in0.0 mm
04:58 AM 33.3°F0.7°C 32.0°F0.0°C 95% 2.0 mph NW3.2 kmh NW 4.9 mph7.9 kmh 30.01 in1016.3 mb 0.00 in0.0 mm 0.00 in0.0 mm 0.00 in0.0 mm
05:03 AM 33.1°F0.6°C 31.8°F-0.1°C 95% 2.0 mph NNW3.2 kmh NNW 4.7 mph7.6 kmh 30.01 in1016.3 mb 0.00 in0.0 mm 0.00 in0.0 mm 0.00 in0.0 mm
05:08 AM 32.9°F0.5°C 31.6°F-0.2°C 95% 2.0 mph NW3.2 kmh NW 4.7 mph7.6 kmh 30.01 in1016.3 mb 0.00 in0.0 mm 0.00 in0.0 mm 0.00 in0.0 mm
05:13 AM 32.9°F0.5°C 31.6°F-0.2°C 95% 2.0 mph N3.2 kmh N 2.9 mph4.7 kmh 30.01 in1016.3 mb 0.00 in0.0 mm 0.00 in0.0 mm 0.00 in0.0 mm
05:18 AM 32.9°F0.5°C 31.6°F-0.2°C 95% 1.3 mph NNW2.1 kmh NNW 2.7 mph4.3 kmh 30.01 in1016.3 mb 0.00 in0.0 mm 0.00 in0.0 mm 0.00 in0.0 mm
05:23 AM 32.9°F0.5°C 31.6°F-0.2°C 95% 2.5 mph N4.0 kmh N 3.8 mph6.1 kmh 30.01 in1016.3 mb 0.00 in0.0 mm 0.00 in0.0 mm 0.00 in0.0 mm
05:28 AM 32.7°F0.4°C 31.5°F-0.3°C 95% 2.2 mph N3.5 kmh N 4.3 mph6.9 kmh 30.02 in1016.6 mb 0.00 in0.0 mm 0.00 in0.0 mm 0.00 in0.0 mm
05:33 AM 32.7°F0.4°C 31.5°F-0.3°C 95% 1.3 mph NW2.1 kmh NW 2.9 mph4.7 kmh 30.02 in1016.6 mb 0.00 in0.0 mm 0.00 in0.0 mm 0.00 in0.0 mm
05:39 AM 32.7°F0.4°C 31.5°F-0.3°C 95% 2.2 mph NNW3.5 kmh NNW 6.3 mph10.1 kmh 30.02 in1016.6 mb 0.00 in0.0 mm 0.00 in0.0 mm 0.00 in0.0 mm
05:44 AM 32.7°F0.4°C 31.5°F-0.3°C 95% 1.3 mph NNW2.1 kmh NNW 3.4 mph5.5 kmh 30.02 in1016.6 mb 0.00 in0.0 mm 0.00 in0.0 mm 0.00 in0.0 mm
05:49 AM 32.7°F0.4°C 31.5°F-0.3°C 95% 2.5 mph 4.0 kmh 5.6 mph9.0 kmh 30.03 in1016.9 mb 0.00 in0.0 mm 0.00 in0.0 mm 0.00 in0.0 mm
05:54 AM 32.7°F0.4°C 31.5°F-0.3°C 95% 1.8 mph N2.9 kmh N 4.3 mph6.9 kmh 30.03 in1016.9 mb 0.00 in0.0 mm 0.00 in0.0 mm 0.00 in0.0 mm
05:59 AM 32.5°F0.3°C 30.9°F-0.6°C 94% 2.7 mph 4.3 kmh 5.6 mph9.0 kmh 30.03 in1016.9 mb 0.00 in0.0 mm 0.00 in0.0 mm 0.00 in0.0 mm
06:04 AM 32.5°F0.3°C 31.3°F-0.4°C 95% 4.0 mph WNW6.4 kmh WNW 8.1 mph13.0 kmh 30.03 in1016.9 mb 0.00 in0.0 mm 0.00 in0.0 mm 0.00 in0.0 mm
06:09 AM 32.4°F0.2°C 31.1°F-0.5°C 95% 4.3 mph N6.9 kmh N 6.5 mph10.5 kmh 30.03 in1016.9 mb 0.00 in0.0 mm 0.00 in0.0 mm 0.00 in0.0 mm
06:14 AM 32.4°F0.2°C 30.7°F-0.7°C 94% 2.9 mph N4.7 kmh N 4.5 mph7.2 kmh 30.04 in1017.3 mb 0.00 in0.0 mm 0.00 in0.0 mm 0.00 in0.0 mm
06:18 AM 32.2°F0.1°C 30.6°F-0.8°C 94% 1.1 mph NNE1.8 kmh NNE 2.5 mph4.0 kmh 30.03 in1016.9 mb 0.00 in0.0 mm 0.00 in0.0 mm 0.00 in0.0 mm
06:23 AM 32.2°F0.1°C 30.6°F-0.8°C 94% 3.4 mph N5.5 kmh N 5.4 mph8.7 kmh 30.03 in1016.9 mb 0.00 in0.0 mm 0.00 in0.0 mm 0.00 in0.0 mm
06:28 AM 32.2°F0.1°C 30.6°F-0.8°C 94% 1.8 mph NE2.9 kmh NE 2.9 mph4.7 kmh 30.03 in1016.9 mb 0.00 in0.0 mm 0.00 in0.0 mm 0.00 in0.0 mm
06:33 AM 32.2°F0.1°C 30.6°F-0.8°C 94% 1.3 mph N2.1 kmh N 3.4 mph5.5 kmh 30.04 in1017.3 mb 0.00 in0.0 mm 0.00 in0.0 mm 0.00 in0.0 mm
06:38 AM 32.2°F0.1°C 30.6°F-0.8°C 94% 2.2 mph N3.5 kmh N 4.0 mph6.4 kmh 30.04 in1017.3 mb 0.00 in0.0 mm 0.00 in0.0 mm 0.00 in0.0 mm
06:43 AM 32.0°F0.0°C 30.4°F-0.9°C 94% 2.2 mph N3.5 kmh N 4.0 mph6.4 kmh 30.04 in1017.3 mb 0.00 in0.0 mm 0.00 in0.0 mm 0.00 in0.0 mm
06:48 AM 32.0°F0.0°C 30.4°F-0.9°C 94% 2.7 mph NW4.3 kmh NW 4.7 mph7.6 kmh 30.04 in1017.3 mb 0.00 in0.0 mm 0.00 in0.0 mm 0.00 in0.0 mm
06:53 AM 32.0°F0.0°C 30.4°F-0.9°C 94% 2.5 mph N4.0 kmh N 4.7 mph7.6 kmh 30.04 in1017.3 mb 0.00 in0.0 mm 0.00 in0.0 mm 0.00 in0.0 mm
06:58 AM 31.8°F-0.1°C 30.4°F-0.9°C 94% 0.9 mph N1.4 kmh N 2.5 mph4.0 kmh 30.05 in1017.6 mb 0.00 in0.0 mm 0.00 in0.0 mm 0.00 in0.0 mm
07:03 AM 31.8°F-0.1°C 30.4°F-0.9°C 94% 2.9 mph N4.7 kmh N 5.1 mph8.2 kmh 30.05 in1017.6 mb 0.00 in0.0 mm 0.00 in0.0 mm 0.00 in0.0 mm
07:08 AM 31.8°F-0.1°C 30.4°F-0.9°C 94% 2.0 mph N3.2 kmh N 4.0 mph6.4 kmh 30.05 in1017.6 mb 0.00 in0.0 mm 0.00 in0.0 mm 0.00 in0.0 mm
07:13 AM 31.8°F-0.1°C 30.4°F-0.9°C 94% 3.1 mph N5.0 kmh N 4.7 mph7.6 kmh 30.05 in1017.6 mb 0.00 in0.0 mm 0.00 in0.0 mm 0.00 in0.0 mm
07:18 AM 31.6°F-0.2°C 30.2°F-1.0°C 94% 2.5 mph N4.0 kmh N 3.6 mph5.8 kmh 30.06 in1017.9 mb 0.00 in0.0 mm 0.00 in0.0 mm 0.00 in0.0 mm
07:23 AM 31.6°F-0.2°C 30.2°F-1.0°C 94% 2.0 mph N3.2 kmh N 2.9 mph4.7 kmh 30.05 in1017.6 mb 0.00 in0.0 mm 0.00 in0.0 mm 0.00 in0.0 mm
07:28 AM 31.8°F-0.1°C 30.4°F-0.9°C 94% 1.3 mph NNE2.1 kmh NNE 3.8 mph6.1 kmh 30.06 in1017.9 mb 0.00 in0.0 mm 0.00 in0.0 mm 0.00 in0.0 mm
07:33 AM 31.6°F-0.2°C 30.2°F-1.0°C 94% 2.5 mph N4.0 kmh N 4.7 mph7.6 kmh 30.06 in1017.9 mb 0.00 in0.0 mm 0.00 in0.0 mm 0.00 in0.0 mm
07:38 AM 31.6°F-0.2°C 30.2°F-1.0°C 94% 1.8 mph WNW2.9 kmh WNW 3.6 mph5.8 kmh 30.06 in1017.9 mb 0.00 in0.0 mm 0.00 in0.0 mm 0.00 in0.0 mm
07:43 AM 31.6°F-0.2°C 30.2°F-1.0°C 94% 2.7 mph WSW4.3 kmh WSW 6.7 mph10.8 kmh 30.06 in1017.9 mb 0.00 in0.0 mm 0.00 in0.0 mm 0.00 in0.0 mm
07:48 AM 31.6°F-0.2°C 30.2°F-1.0°C 94% 2.7 mph N4.3 kmh N 3.8 mph6.1 kmh 30.06 in1017.9 mb 0.00 in0.0 mm 0.00 in0.0 mm 0.00 in0.0 mm
07:53 AM 31.5°F-0.3°C 30.0°F-1.1°C 94% 2.2 mph N3.5 kmh N 3.6 mph5.8 kmh 30.07 in1018.3 mb 0.00 in0.0 mm 0.00 in0.0 mm 0.00 in0.0 mm
07:58 AM 31.6°F-0.2°C 30.2°F-1.0°C 94% 1.1 mph NNW1.8 kmh NNW 2.2 mph3.5 kmh 30.07 in1018.3 mb 0.00 in0.0 mm 0.00 in0.0 mm 0.00 in0.0 mm
08:03 AM 31.6°F-0.2°C 30.2°F-1.0°C 94% 1.1 mph N1.8 kmh N 3.1 mph5.0 kmh 30.07 in1018.3 mb 0.00 in0.0 mm 0.00 in0.0 mm 0.00 in0.0 mm
08:08 AM 31.6°F-0.2°C 30.2°F-1.0°C 94% 1.3 mph NNW2.1 kmh NNW 2.7 mph4.3 kmh 30.08 in1018.6 mb 0.00 in0.0 mm 0.00 in0.0 mm 0.00 in0.0 mm
08:13 AM 31.6°F-0.2°C 30.2°F-1.0°C 94% 3.1 mph N5.0 kmh N 4.9 mph7.9 kmh 30.08 in1018.6 mb 0.00 in0.0 mm 0.00 in0.0 mm 0.00 in0.0 mm
08:18 AM 31.6°F-0.2°C 30.2°F-1.0°C 94% 2.2 mph N3.5 kmh N 4.9 mph7.9 kmh 30.08 in1018.6 mb 0.00 in0.0 mm 0.00 in0.0 mm 0.00 in0.0 mm
08:23 AM 31.6°F-0.2°C 30.2°F-1.0°C 94% 1.1 mph N1.8 kmh N 2.7 mph4.3 kmh 30.09 in1019.0 mb 0.00 in0.0 mm 0.00 in0.0 mm 0.00 in0.0 mm
08:28 AM 31.6°F-0.2°C 30.2°F-1.0°C 94% 1.6 mph NNW2.6 kmh NNW 2.7 mph4.3 kmh 30.09 in1019.0 mb 0.00 in0.0 mm 0.00 in0.0 mm 0.00 in0.0 mm
08:33 AM 31.6°F-0.2°C 30.2°F-1.0°C 94% 1.3 mph NE2.1 kmh NE 2.7 mph4.3 kmh 30.09 in1019.0 mb 0.00 in0.0 mm 0.00 in0.0 mm 0.00 in0.0 mm
08:38 AM 31.6°F-0.2°C 30.2°F-1.0°C 94% 1.6 mph WNW2.6 kmh WNW 4.7 mph7.6 kmh 30.09 in1019.0 mb 0.00 in0.0 mm 0.00 in0.0 mm 0.00 in0.0 mm
08:43 AM 31.6°F-0.2°C 29.8°F-1.2°C 93% 2.0 mph NW3.2 kmh NW 5.1 mph8.2 kmh 30.09 in1019.0 mb 0.00 in0.0 mm 0.00 in0.0 mm 0.00 in0.0 mm
08:48 AM 31.6°F-0.2°C 29.8°F-1.2°C 93% 2.5 mph N4.0 kmh N 3.6 mph5.8 kmh 30.10 in1019.3 mb 0.00 in0.0 mm 0.00 in0.0 mm 0.00 in0.0 mm
08:53 AM 31.6°F-0.2°C 29.8°F-1.2°C 93% 0.2 mph N0.3 kmh N 1.6 mph2.6 kmh 30.10 in1019.3 mb 0.00 in0.0 mm 0.00 in0.0 mm 0.00 in0.0 mm
08:58 AM 31.6°F-0.2°C 29.8°F-1.2°C 93% 1.1 mph NNW1.8 kmh NNW 1.8 mph2.9 kmh 30.10 in1019.3 mb 0.00 in0.0 mm 0.00 in0.0 mm 0.00 in0.0 mm
09:03 AM 31.6°F-0.2°C 29.8°F-1.2°C 93% 1.1 mph NW1.8 kmh NW 3.1 mph5.0 kmh 30.10 in1019.3 mb 0.00 in0.0 mm 0.00 in0.0 mm 0.00 in0.0 mm
09:08 AM 31.6°F-0.2°C 29.8°F-1.2°C 93% 0.7 mph NW1.1 kmh NW 3.1 mph5.0 kmh 30.10 in1019.3 mb 0.00 in0.0 mm 0.00 in0.0 mm 0.00 in0.0 mm
09:13 AM 31.6°F-0.2°C 29.8°F-1.2°C 93% 1.8 mph NNW2.9 kmh NNW 3.6 mph5.8 kmh 30.11 in1019.6 mb 0.00 in0.0 mm 0.00 in0.0 mm 0.00 in0.0 mm
09:18 AM 31.6°F-0.2°C 29.8°F-1.2°C 93% 1.3 mph N2.1 kmh N 2.0 mph3.2 kmh 30.11 in1019.6 mb 0.00 in0.0 mm 0.00 in0.0 mm 0.00 in0.0 mm
09:23 AM 31.6°F-0.2°C 29.8°F-1.2°C 93% 1.6 mph WNW2.6 kmh WNW 4.7 mph7.6 kmh 30.11 in1019.6 mb 0.00 in0.0 mm 0.00 in0.0 mm 0.00 in0.0 mm
09:28 AM 31.6°F-0.2°C 29.8°F-1.2°C 93% 2.0 mph WNW3.2 kmh WNW 3.6 mph5.8 kmh 30.11 in1019.6 mb 0.00 in0.0 mm 0.00 in0.0 mm 0.00 in0.0 mm
09:33 AM 32.0°F0.0°C 30.2°F-1.0°C 93% 1.8 mph N2.9 kmh N 2.7 mph4.3 kmh 30.11 in1019.6 mb 0.00 in0.0 mm 0.00 in0.0 mm 0.00 in0.0 mm
09:38 AM 31.8°F-0.1°C 29.5°F-1.4°C 91% 1.8 mph N2.9 kmh N 2.9 mph4.7 kmh 30.12 in1020.0 mb 0.00 in0.0 mm 0.00 in0.0 mm 0.00 in0.0 mm
09:43 AM 31.8°F-0.1°C 29.5°F-1.4°C 91% 1.1 mph N1.8 kmh N 2.9 mph4.7 kmh 30.12 in1020.0 mb 0.00 in0.0 mm 0.00 in0.0 mm 0.00 in0.0 mm
09:48 AM 31.6°F-0.2°C 29.3°F-1.5°C 91% 1.8 mph N2.9 kmh N 3.1 mph5.0 kmh 30.12 in1020.0 mb 0.00 in0.0 mm 0.00 in0.0 mm 0.00 in0.0 mm
09:53 AM 31.6°F-0.2°C 29.3°F-1.5°C 91% 1.8 mph N2.9 kmh N 3.4 mph5.5 kmh 30.12 in1020.0 mb 0.00 in0.0 mm 0.00 in0.0 mm 0.00 in0.0 mm
09:58 AM 31.6°F-0.2°C 29.3°F-1.5°C 91% 2.0 mph SW3.2 kmh SW 3.6 mph5.8 kmh 30.13 in1020.3 mb 0.00 in0.0 mm 0.00 in0.0 mm 0.00 in0.0 mm
10:03 AM 31.6°F-0.2°C 29.3°F-1.5°C 91% 1.8 mph W2.9 kmh W 3.6 mph5.8 kmh 30.13 in1020.3 mb 0.00 in0.0 mm 0.00 in0.0 mm 0.00 in0.0 mm
10:08 AM 31.6°F-0.2°C 29.3°F-1.5°C 91% 0.4 mph W0.6 kmh W 2.0 mph3.2 kmh 30.13 in1020.3 mb 0.00 in0.0 mm 0.00 in0.0 mm 0.00 in0.0 mm
10:13 AM 31.8°F-0.1°C 29.5°F-1.4°C 91% 0.9 mph NNE1.4 kmh NNE 2.0 mph3.2 kmh 30.13 in1020.3 mb 0.00 in0.0 mm 0.00 in0.0 mm 0.00 in0.0 mm
10:18 AM 31.8°F-0.1°C 29.5°F-1.4°C 91% 1.3 mph WNW2.1 kmh WNW 2.5 mph4.0 kmh 30.13 in1020.3 mb 0.00 in0.0 mm 0.00 in0.0 mm 0.00 in0.0 mm
10:23 AM 31.6°F-0.2°C 29.3°F-1.5°C 91% 1.3 mph N2.1 kmh N 2.2 mph3.5 kmh 30.13 in1020.3 mb 0.00 in0.0 mm 0.00 in0.0 mm 0.00 in0.0 mm
10:28 AM 31.8°F-0.1°C 30.0°F-1.1°C 93% 1.6 mph N2.6 kmh N 2.5 mph4.0 kmh 30.14 in1020.7 mb 0.00 in0.0 mm 0.00 in0.0 mm 0.00 in0.0 mm
10:33 AM 31.8°F-0.1°C 29.5°F-1.4°C 91% 0.4 mph SE0.6 kmh SE 2.0 mph3.2 kmh 30.13 in1020.3 mb 0.00 in0.0 mm 0.00 in0.0 mm 0.00 in0.0 mm
10:38 AM 31.8°F-0.1°C 29.5°F-1.4°C 91% 1.3 mph N2.1 kmh N 2.5 mph4.0 kmh 30.14 in1020.7 mb 0.00 in0.0 mm 0.00 in0.0 mm 0.00 in0.0 mm
10:43 AM 32.0°F0.0°C 29.7°F-1.3°C 91% 0.2 mph W0.3 kmh W 1.6 mph2.6 kmh 30.13 in1020.3 mb 0.00 in0.0 mm 0.00 in0.0 mm 0.00 in0.0 mm
10:48 AM 32.0°F0.0°C 29.7°F-1.3°C 91% 1.6 mph ENE2.6 kmh ENE 3.4 mph5.5 kmh 30.13 in1020.3 mb 0.00 in0.0 mm 0.00 in0.0 mm 0.00 in0.0 mm
10:53 AM 32.0°F0.0°C 29.7°F-1.3°C 91% 1.8 mph WSW2.9 kmh WSW 4.0 mph6.4 kmh 30.13 in1020.3 mb 0.00 in0.0 mm 0.00 in0.0 mm 0.00 in0.0 mm
10:58 AM 32.0°F0.0°C 29.7°F-1.3°C 91% 0.9 mph WSW1.4 kmh WSW 2.5 mph4.0 kmh 30.13 in1020.3 mb 0.00 in0.0 mm 0.00 in0.0 mm 0.00 in0.0 mm
11:03 AM 32.0°F0.0°C 29.7°F-1.3°C 91% 0.9 mph N1.4 kmh N 1.8 mph2.9 kmh 30.13 in1020.3 mb 0.00 in0.0 mm 0.00 in0.0 mm 0.00 in0.0 mm
11:08 AM 32.0°F0.0°C 29.7°F-1.3°C 91% 1.3 mph N2.1 kmh N 1.8 mph2.9 kmh 30.13 in1020.3 mb 0.00 in0.0 mm 0.00 in0.0 mm 0.00 in0.0 mm
11:13 AM 32.2°F0.1°C 29.8°F-1.2°C 91% 1.1 mph W1.8 kmh W 2.5 mph4.0 kmh 30.13 in1020.3 mb 0.00 in0.0 mm 0.00 in0.0 mm 0.00 in0.0 mm
11:18 AM 32.2°F0.1°C 29.7°F-1.3°C 90% 0.9 mph NW1.4 kmh NW 2.7 mph4.3 kmh 30.14 in1020.7 mb 0.00 in0.0 mm 0.00 in0.0 mm 0.00 in0.0 mm
11:23 AM 32.2°F0.1°C 29.7°F-1.3°C 90% 1.1 mph WSW1.8 kmh WSW 2.7 mph4.3 kmh 30.14 in1020.7 mb 0.00 in0.0 mm 0.00 in0.0 mm 0.00 in0.0 mm
11:28 AM 32.2°F0.1°C 29.7°F-1.3°C 90% 1.6 mph WSW2.6 kmh WSW 2.9 mph4.7 kmh 30.14 in1020.7 mb 0.00 in0.0 mm 0.00 in0.0 mm 0.00 in0.0 mm
11:33 AM 32.2°F0.1°C 29.7°F-1.3°C 90% 0.7 mph NNW1.1 kmh NNW 2.2 mph3.5 kmh 30.15 in1021.0 mb 0.00 in0.0 mm 0.00 in0.0 mm 0.00 in0.0 mm
11:38 AM 32.4°F0.2°C 29.8°F-1.2°C 90% 0.7 mph NNW1.1 kmh NNW 2.2 mph3.5 kmh 30.15 in1021.0 mb 0.00 in0.0 mm 0.00 in0.0 mm 0.00 in0.0 mm
11:43 AM 32.5°F0.3°C 30.0°F-1.1°C 90% 1.3 mph WSW2.1 kmh WSW 2.5 mph4.0 kmh 30.16 in1021.3 mb 0.00 in0.0 mm 0.00 in0.0 mm 0.00 in0.0 mm
11:48 AM 32.5°F0.3°C 29.7°F-1.3°C 89% 0.4 mph NW0.6 kmh NW 2.5 mph4.0 kmh 30.16 in1021.3 mb 0.00 in0.0 mm 0.00 in0.0 mm 0.00 in0.0 mm
11:53 AM 32.5°F0.3°C 29.7°F-1.3°C 89% 0.7 mph N1.1 kmh N 1.6 mph2.6 kmh 30.16 in1021.3 mb 0.00 in0.0 mm 0.00 in0.0 mm 0.00 in0.0 mm
11:58 AM 32.5°F0.3°C 29.7°F-1.3°C 89% 2.2 mph N3.5 kmh N 6.5 mph10.5 kmh 30.16 in1021.3 mb 0.00 in0.0 mm 0.00 in0.0 mm 0.00 in0.0 mm
12:03 PM 32.4°F0.2°C 29.5°F-1.4°C 89% 1.3 mph N2.1 kmh N 4.5 mph7.2 kmh 30.17 in1021.7 mb 0.00 in0.0 mm 0.00 in0.0 mm 0.00 in0.0 mm
12:08 PM 32.4°F0.2°C 29.5°F-1.4°C 89% 0.9 mph N1.4 kmh N 4.0 mph6.4 kmh 30.17 in1021.7 mb 0.00 in0.0 mm 0.00 in0.0 mm 0.00 in0.0 mm
12:13 PM 32.5°F0.3°C 29.7°F-1.3°C 89% 0.9 mph N1.4 kmh N 2.7 mph4.3 kmh 30.17 in1021.7 mb 0.00 in0.0 mm 0.00 in0.0 mm 0.00 in0.0 mm
12:18 PM 33.1°F0.6°C 30.2°F-1.0°C 89% 1.1 mph N1.8 kmh N 2.5 mph4.0 kmh 30.18 in1022.0 mb 0.00 in0.0 mm 0.00 in0.0 mm 0.00 in0.0 mm
12:23 PM 32.9°F0.5°C 29.7°F-1.3°C 88% 1.6 mph NNE2.6 kmh NNE 2.7 mph4.3 kmh 30.18 in1022.0 mb 0.00 in0.0 mm 0.00 in0.0 mm 0.00 in0.0 mm
12:28 PM 32.7°F0.4°C 29.5°F-1.4°C 88% 2.5 mph NNW4.0 kmh NNW 4.0 mph6.4 kmh 30.18 in1022.0 mb 0.00 in0.0 mm 0.00 in0.0 mm 0.00 in0.0 mm
12:33 PM 32.5°F0.3°C 29.3°F-1.5°C 88% 1.6 mph N2.6 kmh N 2.0 mph3.2 kmh 30.17 in1021.7 mb 0.00 in0.0 mm 0.00 in0.0 mm 0.00 in0.0 mm
12:38 PM 32.5°F0.3°C 29.3°F-1.5°C 88% 1.1 mph NW1.8 kmh NW 2.2 mph3.5 kmh 30.18 in1022.0 mb 0.00 in0.0 mm 0.00 in0.0 mm 0.00 in0.0 mm
12:43 PM 32.7°F0.4°C 29.5°F-1.4°C 88% 1.6 mph N2.6 kmh N 3.1 mph5.0 kmh 30.18 in1022.0 mb 0.00 in0.0 mm 0.00 in0.0 mm 0.00 in0.0 mm
12:48 PM 32.7°F0.4°C 29.5°F-1.4°C 88% 0.4 mph N0.6 kmh N 1.1 mph1.8 kmh 30.18 in1022.0 mb 0.00 in0.0 mm 0.00 in0.0 mm 0.00 in0.0 mm
12:53 PM 32.7°F0.4°C 29.5°F-1.4°C 88% 1.3 mph NW2.1 kmh NW 4.7 mph7.6 kmh 30.18 in1022.0 mb 0.00 in0.0 mm 0.00 in0.0 mm 0.00 in0.0 mm
12:58 PM 32.7°F0.4°C 29.5°F-1.4°C 88% 0.4 mph N0.6 kmh N 1.3 mph2.1 kmh 30.17 in1021.7 mb 0.00 in0.0 mm 0.00 in0.0 mm 0.00 in0.0 mm
01:03 PM 32.7°F0.4°C 29.5°F-1.4°C 88% 1.3 mph 2.1 kmh 2.7 mph4.3 kmh 30.17 in1021.7 mb 0.00 in0.0 mm 0.00 in0.0 mm 0.00 in0.0 mm
01:08 PM 32.5°F0.3°C 29.3°F-1.5°C 88% 1.6 mph NNE2.6 kmh NNE 2.0 mph3.2 kmh 30.16 in1021.3 mb 0.00 in0.0 mm 0.00 in0.0 mm 0.00 in0.0 mm
01:13 PM 32.5°F0.3°C 29.3°F-1.5°C 88% 1.1 mph WSW1.8 kmh WSW 2.7 mph4.3 kmh 30.16 in1021.3 mb 0.00 in0.0 mm 0.00 in0.0 mm 0.00 in0.0 mm
01:18 PM 32.5°F0.3°C 29.3°F-1.5°C 88% 1.8 mph W2.9 kmh W 3.8 mph6.1 kmh 30.16 in1021.3 mb 0.00 in0.0 mm 0.00 in0.0 mm 0.00 in0.0 mm
01:23 PM 32.5°F0.3°C 29.3°F-1.5°C 88% 1.3 mph N2.1 kmh N 2.9 mph4.7 kmh 30.16 in1021.3 mb 0.00 in0.0 mm 0.00 in0.0 mm 0.00 in0.0 mm
01:28 PM 32.5°F0.3°C 29.3°F-1.5°C 88% 2.2 mph W3.5 kmh W 5.8 mph9.3 kmh 30.15 in1021.0 mb 0.00 in0.0 mm 0.00 in0.0 mm 0.00 in0.0 mm
01:33 PM 32.5°F0.3°C 29.3°F-1.5°C 88% 0.9 mph NW1.4 kmh NW 2.5 mph4.0 kmh 30.15 in1021.0 mb 0.00 in0.0 mm 0.00 in0.0 mm 0.00 in0.0 mm
01:38 PM 32.5°F0.3°C 29.3°F-1.5°C 88% 2.2 mph NNW3.5 kmh NNW 4.9 mph7.9 kmh 30.16 in1021.3 mb 0.00 in0.0 mm 0.00 in0.0 mm 0.00 in0.0 mm
01:43 PM 32.7°F0.4°C 29.5°F-1.4°C 88% 0.4 mph N0.6 kmh N 2.0 mph3.2 kmh 30.16 in1021.3 mb 0.00 in0.0 mm 0.00 in0.0 mm 0.00 in0.0 mm
01:48 PM 32.9°F0.5°C 29.7°F-1.3°C 88% 1.8 mph N2.9 kmh N 2.7 mph4.3 kmh 30.16 in1021.3 mb 0.00 in0.0 mm 0.00 in0.0 mm 0.00 in0.0 mm
01:53 PM 32.7°F0.4°C 29.5°F-1.4°C 88% 1.6 mph N2.6 kmh N 2.9 mph4.7 kmh 30.15 in1021.0 mb 0.00 in0.0 mm 0.00 in0.0 mm 0.00 in0.0 mm
01:58 PM 32.7°F0.4°C 29.5°F-1.4°C 88% 0.9 mph NW1.4 kmh NW 2.2 mph3.5 kmh 30.16 in1021.3 mb 0.00 in0.0 mm 0.00 in0.0 mm 0.00 in0.0 mm
02:03 PM 32.5°F0.3°C 29.3°F-1.5°C 88% 1.8 mph NW2.9 kmh NW 3.6 mph5.8 kmh 30.15 in1021.0 mb 0.00 in0.0 mm 0.00 in0.0 mm 0.00 in0.0 mm
02:08 PM 32.7°F0.4°C 29.5°F-1.4°C 88% 1.1 mph NW1.8 kmh NW 3.4 mph5.5 kmh 30.15 in1021.0 mb 0.00 in0.0 mm 0.00 in0.0 mm 0.00 in0.0 mm
02:13 PM 32.5°F0.3°C 29.3°F-1.5°C 88% 0.7 mph WNW1.1 kmh WNW 1.8 mph2.9 kmh 30.14 in1020.7 mb 0.00 in0.0 mm 0.00 in0.0 mm 0.00 in0.0 mm
02:18 PM 32.5°F0.3°C 29.3°F-1.5°C 88% 1.1 mph NE1.8 kmh NE 2.2 mph3.5 kmh 30.14 in1020.7 mb 0.00 in0.0 mm 0.00 in0.0 mm 0.00 in0.0 mm
02:23 PM 32.5°F0.3°C 29.3°F-1.5°C 88% 1.8 mph NNE2.9 kmh NNE 2.0 mph3.2 kmh 30.14 in1020.7 mb 0.00 in0.0 mm 0.00 in0.0 mm 0.00 in0.0 mm
02:28 PM 32.5°F0.3°C 29.3°F-1.5°C 88% 1.8 mph WSW2.9 kmh WSW 2.7 mph4.3 kmh 30.14 in1020.7 mb 0.00 in0.0 mm 0.00 in0.0 mm 0.00 in0.0 mm
02:33 PM 32.5°F0.3°C 29.3°F-1.5°C 88% 0.9 mph N1.4 kmh N 1.6 mph2.6 kmh 30.14 in1020.7 mb 0.00 in0.0 mm 0.00 in0.0 mm 0.00 in0.0 mm
02:38 PM 32.7°F0.4°C 29.5°F-1.4°C 88% 0.4 mph SW0.6 kmh SW 2.5 mph4.0 kmh 30.14 in1020.7 mb 0.00 in0.0 mm 0.00 in0.0 mm 0.00 in0.0 mm
02:43 PM 32.9°F0.5°C 29.7°F-1.3°C 88% 0.4 mph NNW0.6 kmh NNW 1.3 mph2.1 kmh 30.14 in1020.7 mb 0.00 in0.0 mm 0.00 in0.0 mm 0.00 in0.0 mm
02:48 PM 33.1°F0.6°C 29.8°F-1.2°C 88% Calm Calm 0.9 mph1.4 kmh 30.14 in1020.7 mb 0.00 in0.0 mm 0.00 in0.0 mm 0.00 in0.0 mm
02:53 PM 33.3°F0.7°C 30.0°F-1.1°C 88% 0.7 mph NNW1.1 kmh NNW 4.5 mph7.2 kmh 30.14 in1020.7 mb 0.00 in0.0 mm 0.00 in0.0 mm 0.00 in0.0 mm
02:58 PM 33.3°F0.7°C 30.0°F-1.1°C 88% 1.1 mph S1.8 kmh S 2.0 mph3.2 kmh 30.14 in1020.7 mb 0.00 in0.0 mm 0.00 in0.0 mm 0.00 in0.0 mm
03:03 PM 33.1°F0.6°C 29.8°F-1.2°C 88% 1.6 mph WNW2.6 kmh WNW 5.6 mph9.0 kmh 30.14 in1020.7 mb 0.00 in0.0 mm 0.00 in0.0 mm 0.00 in0.0 mm
03:08 PM 33.1°F0.6°C 29.8°F-1.2°C 88% 0.7 mph NW1.1 kmh NW 1.8 mph2.9 kmh 30.15 in1021.0 mb 0.00 in0.0 mm 0.00 in0.0 mm 0.00 in0.0 mm
03:13 PM 32.9°F0.5°C 29.7°F-1.3°C 88% 2.2 mph W3.5 kmh W 3.6 mph5.8 kmh 30.16 in1021.3 mb 0.00 in0.0 mm 0.00 in0.0 mm 0.00 in0.0 mm
03:18 PM 32.7°F0.4°C 29.5°F-1.4°C 88% 2.7 mph N4.3 kmh N 3.1 mph5.0 kmh 30.16 in1021.3 mb 0.00 in0.0 mm 0.00 in0.0 mm 0.00 in0.0 mm
03:23 PM 32.5°F0.3°C 29.3°F-1.5°C 88% 1.1 mph N1.8 kmh N 2.0 mph3.2 kmh 30.16 in1021.3 mb 0.00 in0.0 mm 0.00 in0.0 mm 0.00 in0.0 mm
03:28 PM 32.7°F0.4°C 29.5°F-1.4°C 88% 1.8 mph NNE2.9 kmh NNE 3.4 mph5.5 kmh 30.16 in1021.3 mb 0.00 in0.0 mm 0.00 in0.0 mm 0.00 in0.0 mm
03:33 PM 32.5°F0.3°C 29.3°F-1.5°C 88% 2.0 mph W3.2 kmh W 6.0 mph9.7 kmh 30.16 in1021.3 mb 0.00 in0.0 mm 0.00 in0.0 mm 0.00 in0.0 mm
03:38 PM 32.5°F0.3°C 29.3°F-1.5°C 88% 1.1 mph WNW1.8 kmh WNW 2.5 mph4.0 kmh 30.16 in1021.3 mb 0.00 in0.0 mm 0.00 in0.0 mm 0.00 in0.0 mm
03:43 PM 32.5°F0.3°C 29.3°F-1.5°C 88% 2.9 mph WNW4.7 kmh WNW 8.7 mph14.0 kmh 30.16 in1021.3 mb 0.00 in0.0 mm 0.00 in0.0 mm 0.00 in0.0 mm
03:48 PM 32.5°F0.3°C 29.3°F-1.5°C 88% 2.0 mph N3.2 kmh N 3.4 mph5.5 kmh 30.17 in1021.7 mb 0.00 in0.0 mm 0.00 in0.0 mm 0.00 in0.0 mm
03:53 PM 32.4°F0.2°C 29.1°F-1.6°C 88% 2.2 mph N3.5 kmh N 2.9 mph4.7 kmh 30.17 in1021.7 mb 0.00 in0.0 mm 0.00 in0.0 mm 0.00 in0.0 mm
03:58 PM 32.4°F0.2°C 29.1°F-1.6°C 88% 1.6 mph WNW2.6 kmh WNW 4.3 mph6.9 kmh 30.17 in1021.7 mb 0.00 in0.0 mm 0.00 in0.0 mm 0.00 in0.0 mm
04:03 PM 32.4°F0.2°C 29.1°F-1.6°C 88% 2.0 mph NNW3.2 kmh NNW 3.6 mph5.8 kmh 30.18 in1022.0 mb 0.00 in0.0 mm 0.00 in0.0 mm 0.00 in0.0 mm
04:08 PM 32.2°F0.1°C 28.9°F-1.7°C 88% 4.7 mph N7.6 kmh N 8.3 mph13.4 kmh 30.18 in1022.0 mb 0.00 in0.0 mm 0.00 in0.0 mm 0.00 in0.0 mm
04:13 PM 32.2°F0.1°C 28.9°F-1.7°C 88% 2.0 mph N3.2 kmh N 3.1 mph5.0 kmh 30.18 in1022.0 mb 0.00 in0.0 mm 0.00 in0.0 mm 0.00 in0.0 mm
04:18 PM 32.0°F0.0°C 28.8°F-1.8°C 88% 1.8 mph NNW2.9 kmh NNW 4.9 mph7.9 kmh 30.19 in1022.4 mb 0.00 in0.0 mm 0.00 in0.0 mm 0.00 in0.0 mm
04:23 PM 32.0°F0.0°C 28.8°F-1.8°C 88% 4.0 mph N6.4 kmh N 6.7 mph10.8 kmh 30.19 in1022.4 mb 0.00 in0.0 mm 0.00 in0.0 mm 0.00 in0.0 mm
04:28 PM 31.8°F-0.1°C 28.0°F-2.2°C 86% 3.4 mph N5.5 kmh N 5.6 mph9.0 kmh 30.19 in1022.4 mb 0.00 in0.0 mm 0.00 in0.0 mm 0.00 in0.0 mm
04:33 PM 31.8°F-0.1°C 27.5°F-2.5°C 84% 2.9 mph N4.7 kmh N 5.6 mph9.0 kmh 30.19 in1022.4 mb 0.00 in0.0 mm 0.00 in0.0 mm 0.00 in0.0 mm
04:38 PM 31.6°F-0.2°C 27.1°F-2.7°C 83% 3.8 mph N6.1 kmh N 7.2 mph11.6 kmh 30.19 in1022.4 mb 0.00 in0.0 mm 0.00 in0.0 mm 0.00 in0.0 mm
04:43 PM 31.8°F-0.1°C 27.5°F-2.5°C 84% 2.0 mph NNE3.2 kmh NNE 3.6 mph5.8 kmh 30.19 in1022.4 mb 0.00 in0.0 mm 0.00 in0.0 mm 0.00 in0.0 mm
04:48 PM 31.8°F-0.1°C 27.3°F-2.6°C 83% 3.4 mph WNW5.5 kmh WNW 7.8 mph12.6 kmh 30.19 in1022.4 mb 0.00 in0.0 mm 0.00 in0.0 mm 0.00 in0.0 mm
04:53 PM 31.8°F-0.1°C 27.3°F-2.6°C 83% 2.7 mph N4.3 kmh N 4.5 mph7.2 kmh 30.19 in1022.4 mb 0.00 in0.0 mm 0.00 in0.0 mm 0.00 in0.0 mm
04:58 PM 31.8°F-0.1°C 26.6°F-3.0°C 81% 2.5 mph N4.0 kmh N 4.3 mph6.9 kmh 30.19 in1022.4 mb 0.00 in0.0 mm 0.00 in0.0 mm 0.00 in0.0 mm
05:03 PM 31.6°F-0.2°C 26.4°F-3.1°C 81% 2.9 mph 4.7 kmh 4.5 mph7.2 kmh 30.20 in1022.7 mb 0.00 in0.0 mm 0.00 in0.0 mm 0.00 in0.0 mm
05:08 PM 31.5°F-0.3°C 26.2°F-3.2°C 81% 1.6 mph N2.6 kmh N 2.7 mph4.3 kmh 30.20 in1022.7 mb 0.00 in0.0 mm 0.00 in0.0 mm 0.00 in0.0 mm
05:13 PM 31.6°F-0.2°C 26.4°F-3.1°C 81% 2.2 mph N3.5 kmh N 3.4 mph5.5 kmh 30.20 in1022.7 mb 0.00 in0.0 mm 0.00 in0.0 mm 0.00 in0.0 mm
05:18 PM 31.6°F-0.2°C 26.4°F-3.1°C 81% 1.3 mph NNE2.1 kmh NNE 2.9 mph4.7 kmh 30.20 in1022.7 mb 0.00 in0.0 mm 0.00 in0.0 mm 0.00 in0.0 mm
05:23 PM 31.5°F-0.3°C 26.1°F-3.3°C 80% 2.2 mph N3.5 kmh N 3.6 mph5.8 kmh 30.20 in1022.7 mb 0.00 in0.0 mm 0.00 in0.0 mm 0.00 in0.0 mm
05:29 PM 31.3°F-0.4°C 25.9°F-3.4°C 80% 2.0 mph WNW3.2 kmh WNW 4.7 mph7.6 kmh 30.20 in1022.7 mb 0.00 in0.0 mm 0.00 in0.0 mm 0.00 in0.0 mm
05:34 PM 31.5°F-0.3°C 26.2°F-3.2°C 81% 3.8 mph N6.1 kmh N 5.1 mph8.2 kmh 30.20 in1022.7 mb 0.00 in0.0 mm 0.00 in0.0 mm 0.00 in0.0 mm
05:38 PM 31.3°F-0.4°C 25.9°F-3.4°C 80% 1.8 mph N2.9 kmh N 4.5 mph7.2 kmh 30.21 in1023.0 mb 0.00 in0.0 mm 0.00 in0.0 mm 0.00 in0.0 mm
05:44 PM 31.6°F-0.2°C 26.2°F-3.2°C 80% 2.2 mph N3.5 kmh N 3.8 mph6.1 kmh 30.21 in1023.0 mb 0.00 in0.0 mm 0.00 in0.0 mm 0.00 in0.0 mm
05:48 PM 31.5°F-0.3°C 26.1°F-3.3°C 80% 2.7 mph 4.3 kmh 4.0 mph6.4 kmh 30.21 in1023.0 mb 0.00 in0.0 mm 0.00 in0.0 mm 0.00 in0.0 mm
05:54 PM 31.3°F-0.4°C 25.9°F-3.4°C 80% 2.7 mph N4.3 kmh N 4.7 mph7.6 kmh 30.21 in1023.0 mb 0.00 in0.0 mm 0.00 in0.0 mm 0.00 in0.0 mm
05:59 PM 31.1°F-0.5°C 25.7°F-3.5°C 80% 1.6 mph N2.6 kmh N 2.2 mph3.5 kmh 30.21 in1023.0 mb 0.00 in0.0 mm 0.00 in0.0 mm 0.00 in0.0 mm
06:04 PM 31.1°F-0.5°C 25.9°F-3.4°C 81% 0.9 mph W1.4 kmh W 3.1 mph5.0 kmh 30.21 in1023.0 mb 0.00 in0.0 mm 0.00 in0.0 mm 0.00 in0.0 mm
06:09 PM 31.3°F-0.4°C 26.1°F-3.3°C 81% 1.8 mph WNW2.9 kmh WNW 4.7 mph7.6 kmh 30.21 in1023.0 mb 0.00 in0.0 mm 0.00 in0.0 mm 0.00 in0.0 mm
06:14 PM 31.3°F-0.4°C 26.1°F-3.3°C 81% 0.7 mph N1.1 kmh N 1.8 mph2.9 kmh 30.21 in1023.0 mb 0.00 in0.0 mm 0.00 in0.0 mm 0.00 in0.0 mm
06:19 PM 31.3°F-0.4°C 26.8°F-2.9°C 83% 0.2 mph SW0.3 kmh SW 1.1 mph1.8 kmh 30.21 in1023.0 mb 0.00 in0.0 mm 0.00 in0.0 mm 0.00 in0.0 mm
06:24 PM 31.5°F-0.3°C 27.1°F-2.7°C 84% 0.4 mph SE0.6 kmh SE 1.1 mph1.8 kmh 30.20 in1022.7 mb 0.00 in0.0 mm 0.00 in0.0 mm 0.00 in0.0 mm
06:29 PM 31.5°F-0.3°C 27.0°F-2.8°C 83% 0.9 mph WSW1.4 kmh WSW 2.5 mph4.0 kmh 30.21 in1023.0 mb 0.00 in0.0 mm 0.00 in0.0 mm 0.00 in0.0 mm
06:34 PM 31.5°F-0.3°C 27.0°F-2.8°C 83% 1.3 mph N2.1 kmh N 1.8 mph2.9 kmh 30.21 in1023.0 mb 0.00 in0.0 mm 0.00 in0.0 mm 0.00 in0.0 mm
06:39 PM 31.5°F-0.3°C 27.0°F-2.8°C 83% 0.2 mph SW0.3 kmh SW 1.3 mph2.1 kmh 30.21 in1023.0 mb 0.00 in0.0 mm 0.00 in0.0 mm 0.00 in0.0 mm
06:44 PM 31.3°F-0.4°C 27.0°F-2.8°C 84% 2.0 mph N3.2 kmh N 2.7 mph4.3 kmh 30.21 in1023.0 mb 0.00 in0.0 mm 0.00 in0.0 mm 0.00 in0.0 mm
06:49 PM 31.1°F-0.5°C 26.8°F-2.9°C 84% 1.3 mph NNE2.1 kmh NNE 1.8 mph2.9 kmh 30.22 in1023.4 mb 0.00 in0.0 mm 0.00 in0.0 mm 0.00 in0.0 mm
06:54 PM 31.1°F-0.5°C 27.1°F-2.7°C 85% 0.9 mph N1.4 kmh N 1.8 mph2.9 kmh 30.22 in1023.4 mb 0.00 in0.0 mm 0.00 in0.0 mm 0.00 in0.0 mm
06:59 PM 30.9°F-0.6°C 27.1°F-2.7°C 86% 1.6 mph NNE2.6 kmh NNE 2.2 mph3.5 kmh 30.22 in1023.4 mb 0.00 in0.0 mm 0.00 in0.0 mm 0.00 in0.0 mm
07:04 PM 30.9°F-0.6°C 27.1°F-2.7°C 86% 1.8 mph N2.9 kmh N 3.8 mph6.1 kmh 30.22 in1023.4 mb 0.00 in0.0 mm 0.00 in0.0 mm 0.00 in0.0 mm
07:09 PM 30.7°F-0.7°C 27.0°F-2.8°C 86% 2.0 mph 3.2 kmh 3.4 mph5.5 kmh 30.22 in1023.4 mb 0.00 in0.0 mm 0.00 in0.0 mm 0.00 in0.0 mm
07:14 PM 30.7°F-0.7°C 27.0°F-2.8°C 86% 2.5 mph N4.0 kmh N 3.1 mph5.0 kmh 30.22 in1023.4 mb 0.00 in0.0 mm 0.00 in0.0 mm 0.00 in0.0 mm
07:19 PM 30.6°F-0.8°C 27.0°F-2.8°C 86% 2.2 mph N3.5 kmh N 2.9 mph4.7 kmh 30.22 in1023.4 mb 0.00 in0.0 mm 0.00 in0.0 mm 0.00 in0.0 mm
07:24 PM 30.6°F-0.8°C 27.0°F-2.8°C 86% 2.2 mph N3.5 kmh N 2.9 mph4.7 kmh 30.23 in1023.7 mb 0.00 in0.0 mm 0.00 in0.0 mm 0.00 in0.0 mm
07:29 PM 30.4°F-0.9°C 26.8°F-2.9°C 86% 2.7 mph N4.3 kmh N 4.0 mph6.4 kmh 30.23 in1023.7 mb 0.00 in0.0 mm 0.00 in0.0 mm 0.00 in0.0 mm
07:34 PM 30.4°F-0.9°C 26.8°F-2.9°C 86% 2.0 mph N3.2 kmh N 3.1 mph5.0 kmh 30.23 in1023.7 mb 0.00 in0.0 mm 0.00 in0.0 mm 0.00 in0.0 mm
07:39 PM 30.2°F-1.0°C 26.6°F-3.0°C 86% 1.3 mph NNE2.1 kmh NNE 2.2 mph3.5 kmh 30.24 in1024.0 mb 0.00 in0.0 mm 0.00 in0.0 mm 0.00 in0.0 mm
07:44 PM 30.4°F-0.9°C 26.8°F-2.9°C 86% 2.7 mph N4.3 kmh N 3.8 mph6.1 kmh 30.24 in1024.0 mb 0.00 in0.0 mm 0.00 in0.0 mm 0.00 in0.0 mm
07:49 PM 30.4°F-0.9°C 26.4°F-3.1°C 85% 2.9 mph N4.7 kmh N 4.0 mph6.4 kmh 30.24 in1024.0 mb 0.00 in0.0 mm 0.00 in0.0 mm 0.00 in0.0 mm
07:54 PM 30.2°F-1.0°C 26.2°F-3.2°C 85% 1.8 mph N2.9 kmh N 3.6 mph5.8 kmh 30.24 in1024.0 mb 0.00 in0.0 mm 0.00 in0.0 mm 0.00 in0.0 mm
07:59 PM 30.0°F-1.1°C 26.1°F-3.3°C 85% 2.7 mph NNE4.3 kmh NNE 3.8 mph6.1 kmh 30.24 in1024.0 mb 0.00 in0.0 mm 0.00 in0.0 mm 0.00 in0.0 mm
08:04 PM 30.0°F-1.1°C 26.1°F-3.3°C 85% 1.8 mph N2.9 kmh N 3.6 mph5.8 kmh 30.24 in1024.0 mb 0.00 in0.0 mm 0.00 in0.0 mm 0.00 in0.0 mm
08:09 PM 30.0°F-1.1°C 26.1°F-3.3°C 85% 2.2 mph N3.5 kmh N 3.6 mph5.8 kmh 30.24 in1024.0 mb 0.00 in0.0 mm 0.00 in0.0 mm 0.00 in0.0 mm
08:14 PM 30.0°F-1.1°C 26.1°F-3.3°C 85% 1.3 mph NNE2.1 kmh NNE 2.2 mph3.5 kmh 30.24 in1024.0 mb 0.00 in0.0 mm 0.00 in0.0 mm 0.00 in0.0 mm
08:19 PM 30.0°F-1.1°C 26.1°F-3.3°C 85% 2.2 mph N3.5 kmh N 3.1 mph5.0 kmh 30.24 in1024.0 mb 0.00 in0.0 mm 0.00 in0.0 mm 0.00 in0.0 mm
08:24 PM 30.0°F-1.1°C 26.1°F-3.3°C 85% 3.4 mph NNE5.5 kmh NNE 5.8 mph9.3 kmh 30.24 in1024.0 mb 0.00 in0.0 mm 0.00 in0.0 mm 0.00 in0.0 mm
08:29 PM 30.0°F-1.1°C 25.7°F-3.5°C 84% 2.5 mph NE4.0 kmh NE 4.0 mph6.4 kmh 30.24 in1024.0 mb 0.00 in0.0 mm 0.00 in0.0 mm 0.00 in0.0 mm
08:34 PM 30.0°F-1.1°C 25.7°F-3.5°C 84% 1.1 mph NNE1.8 kmh NNE 1.8 mph2.9 kmh 30.24 in1024.0 mb 0.00 in0.0 mm 0.00 in0.0 mm 0.00 in0.0 mm
08:39 PM 30.0°F-1.1°C 25.7°F-3.5°C 84% 1.3 mph 2.1 kmh 1.6 mph2.6 kmh 30.24 in1024.0 mb 0.00 in0.0 mm 0.00 in0.0 mm 0.00 in0.0 mm
08:44 PM 29.8°F-1.2°C 25.5°F-3.6°C 84% 2.9 mph N4.7 kmh N 4.0 mph6.4 kmh 30.25 in1024.4 mb 0.00 in0.0 mm 0.00 in0.0 mm 0.00 in0.0 mm
08:49 PM 29.8°F-1.2°C 25.5°F-3.6°C 84% 1.6 mph NE2.6 kmh NE 2.2 mph3.5 kmh 30.25 in1024.4 mb 0.00 in0.0 mm 0.00 in0.0 mm 0.00 in0.0 mm
08:54 PM 29.8°F-1.2°C 25.5°F-3.6°C 84% 0.9 mph NNE1.4 kmh NNE 2.0 mph3.2 kmh 30.25 in1024.4 mb 0.00 in0.0 mm 0.00 in0.0 mm 0.00 in0.0 mm
08:59 PM 29.8°F-1.2°C 25.5°F-3.6°C 84% 0.4 mph N0.6 kmh N 1.1 mph1.8 kmh 30.26 in1024.7 mb 0.00 in0.0 mm 0.00 in0.0 mm 0.00 in0.0 mm
09:04 PM 29.8°F-1.2°C 25.3°F-3.7°C 83% 0.2 mph NNE0.3 kmh NNE 1.1 mph1.8 kmh 30.26 in1024.7 mb 0.00 in0.0 mm 0.00 in0.0 mm 0.00 in0.0 mm
09:09 PM 29.7°F-1.3°C 25.2°F-3.8°C 83% 1.1 mph N1.8 kmh N 1.8 mph2.9 kmh 30.27 in1025.1 mb 0.00 in0.0 mm 0.00 in0.0 mm 0.00 in0.0 mm
09:14 PM 29.8°F-1.2°C 25.5°F-3.6°C 84% Calm Calm -- 30.27 in1025.1 mb 0.00 in0.0 mm 0.00 in0.0 mm 0.00 in0.0 mm
09:19 PM 30.0°F-1.1°C 25.5°F-3.6°C 83% 1.6 mph NE2.6 kmh NE 1.8 mph2.9 kmh 30.27 in1025.1 mb 0.00 in0.0 mm 0.00 in0.0 mm 0.00 in0.0 mm
09:24 PM 30.0°F-1.1°C 25.5°F-3.6°C 83% 0.2 mph NE0.3 kmh NE 1.1 mph1.8 kmh 30.27 in1025.1 mb 0.00 in0.0 mm 0.00 in0.0 mm 0.00 in0.0 mm
09:29 PM 29.8°F-1.2°C 25.3°F-3.7°C 83% Calm Calm -- 30.27 in1025.1 mb 0.00 in0.0 mm 0.00 in0.0 mm 0.00 in0.0 mm
09:34 PM 30.0°F-1.1°C 25.7°F-3.5°C 84% 0.2 mph ENE0.3 kmh ENE 1.1 mph1.8 kmh 30.27 in1025.1 mb 0.00 in0.0 mm 0.00 in0.0 mm 0.00 in0.0 mm
09:39 PM 30.0°F-1.1°C 25.5°F-3.6°C 83% 0.4 mph NE0.6 kmh NE 1.3 mph2.1 kmh 30.27 in1025.1 mb 0.00 in0.0 mm 0.00 in0.0 mm 0.00 in0.0 mm
09:44 PM 30.0°F-1.1°C 25.5°F-3.6°C 83% Calm Calm -- 30.26 in1024.7 mb 0.00 in0.0 mm 0.00 in0.0 mm 0.00 in0.0 mm
09:49 PM 29.8°F-1.2°C 25.3°F-3.7°C 83% 1.1 mph NE1.8 kmh NE 1.8 mph2.9 kmh 30.26 in1024.7 mb 0.00 in0.0 mm 0.00 in0.0 mm 0.00 in0.0 mm
09:54 PM 29.8°F-1.2°C 25.3°F-3.7°C 83% 1.6 mph ENE2.6 kmh ENE 2.0 mph3.2 kmh 30.25 in1024.4 mb 0.00 in0.0 mm 0.00 in0.0 mm 0.00 in0.0 mm
09:59 PM 30.0°F-1.1°C 25.5°F-3.6°C 83% 0.9 mph ENE1.4 kmh ENE 1.1 mph1.8 kmh 30.25 in1024.4 mb 0.00 in0.0 mm 0.00 in0.0 mm 0.00 in0.0 mm
10:04 PM 30.2°F-1.0°C 25.7°F-3.5°C 83% 1.1 mph ESE1.8 kmh ESE 1.3 mph2.1 kmh 30.24 in1024.0 mb 0.00 in0.0 mm 0.00 in0.0 mm 0.00 in0.0 mm
10:09 PM 30.4°F-0.9°C 25.9°F-3.4°C 83% 1.6 mph ENE2.6 kmh ENE 1.8 mph2.9 kmh 30.24 in1024.0 mb 0.00 in0.0 mm 0.00 in0.0 mm 0.00 in0.0 mm
10:14 PM 30.4°F-0.9°C 25.9°F-3.4°C 83% 0.2 mph E0.3 kmh E 0.9 mph1.4 kmh 30.24 in1024.0 mb 0.00 in0.0 mm 0.00 in0.0 mm 0.00 in0.0 mm
10:19 PM 30.4°F-0.9°C 25.9°F-3.4°C 83% 0.7 mph NE1.1 kmh NE 1.6 mph2.6 kmh 30.24 in1024.0 mb 0.00 in0.0 mm 0.00 in0.0 mm 0.00 in0.0 mm
10:24 PM 30.4°F-0.9°C 25.2°F-3.8°C 81% Calm Calm -- 30.24 in1024.0 mb 0.00 in0.0 mm 0.00 in0.0 mm 0.00 in0.0 mm
10:29 PM 30.2°F-1.0°C 25.7°F-3.5°C 83% Calm Calm -- 30.24 in1024.0 mb 0.00 in0.0 mm 0.00 in0.0 mm 0.00 in0.0 mm
10:34 PM 30.4°F-0.9°C 25.9°F-3.4°C 83% Calm Calm -- 30.24 in1024.0 mb 0.00 in0.0 mm 0.00 in0.0 mm 0.00 in0.0 mm
10:39 PM 30.4°F-0.9°C 25.9°F-3.4°C 83% Calm Calm -- 30.25 in1024.4 mb 0.00 in0.0 mm 0.00 in0.0 mm 0.00 in0.0 mm
10:44 PM 30.4°F-0.9°C 25.9°F-3.4°C 83% 0.9 mph ENE1.4 kmh ENE 1.6 mph2.6 kmh 30.25 in1024.4 mb 0.00 in0.0 mm 0.00 in0.0 mm 0.00 in0.0 mm
10:49 PM 30.6°F-0.8°C 26.1°F-3.3°C 83% Calm Calm -- 30.25 in1024.4 mb 0.00 in0.0 mm 0.00 in0.0 mm 0.00 in0.0 mm
10:54 PM 30.4°F-0.9°C 25.9°F-3.4°C 83% 1.1 mph NE1.8 kmh NE 2.0 mph3.2 kmh 30.25 in1024.4 mb 0.00 in0.0 mm 0.00 in0.0 mm 0.00 in0.0 mm
10:59 PM 30.4°F-0.9°C 25.9°F-3.4°C 83% 1.6 mph NE2.6 kmh NE 2.2 mph3.5 kmh 30.24 in1024.0 mb 0.00 in0.0 mm 0.00 in0.0 mm 0.00 in0.0 mm
11:04 PM 30.4°F-0.9°C 25.2°F-3.8°C 81% 1.8 mph ESE2.9 kmh ESE 2.5 mph4.0 kmh 30.24 in1024.0 mb 0.00 in0.0 mm 0.00 in0.0 mm 0.00 in0.0 mm
11:09 PM 30.4°F-0.9°C 25.9°F-3.4°C 83% 1.6 mph SE2.6 kmh SE 1.8 mph2.9 kmh 30.24 in1024.0 mb 0.00 in0.0 mm 0.00 in0.0 mm 0.00 in0.0 mm
11:14 PM 30.4°F-0.9°C 25.9°F-3.4°C 83% 0.9 mph SE1.4 kmh SE 1.3 mph2.1 kmh 30.25 in1024.4 mb 0.00 in0.0 mm 0.00 in0.0 mm 0.00 in0.0 mm
11:19 PM 30.4°F-0.9°C 26.1°F-3.3°C 84% Calm Calm -- 30.24 in1024.0 mb 0.00 in0.0 mm 0.00 in0.0 mm 0.00 in0.0 mm
11:24 PM 30.2°F-1.0°C 25.9°F-3.4°C 84% Calm Calm -- 30.24 in1024.0 mb 0.00 in0.0 mm 0.00 in0.0 mm 0.00 in0.0 mm
11:29 PM 30.2°F-1.0°C 25.7°F-3.5°C 83% 1.1 mph NE1.8 kmh NE 1.6 mph2.6 kmh 30.24 in1024.0 mb 0.00 in0.0 mm 0.00 in0.0 mm 0.00 in0.0 mm
11:34 PM 30.2°F-1.0°C 25.7°F-3.5°C 83% 1.1 mph NE1.8 kmh NE 1.8 mph2.9 kmh 30.24 in1024.0 mb 0.00 in0.0 mm 0.00 in0.0 mm 0.00 in0.0 mm
11:39 PM 30.2°F-1.0°C 25.2°F-3.8°C 81% 1.8 mph NE2.9 kmh NE 4.7 mph7.6 kmh 30.24 in1024.0 mb 0.00 in0.0 mm 0.00 in0.0 mm 0.00 in0.0 mm
11:44 PM 30.4°F-0.9°C 25.2°F-3.8°C 81% Calm Calm 0.7 mph1.1 kmh 30.24 in1024.0 mb 0.00 in0.0 mm 0.00 in0.0 mm 0.00 in0.0 mm
11:49 PM 30.4°F-0.9°C 25.9°F-3.4°C 83% 0.7 mph SE1.1 kmh SE 1.6 mph2.6 kmh 30.25 in1024.4 mb 0.00 in0.0 mm 0.00 in0.0 mm 0.00 in0.0 mm
11:54 PM 30.2°F-1.0°C 25.7°F-3.5°C 83% Calm Calm 1.8 mph2.9 kmh 30.25 in1024.4 mb 0.00 in0.0 mm 0.00 in0.0 mm 0.00 in0.0 mm
11:59 PM 30.0°F-1.1°C 25.5°F-3.6°C 83% Calm Calm 0.9 mph1.4 kmh 30.25 in1024.4 mb 0.00 in0.0 mm 0.00 in0.0 mm 0.00 in0.0 mm